Terminal Aerodrome Forecast
Issued by NWS Raleigh/Durham, NC

Home | Current Version | Previous Version | Text Only | Print | Product List | Glossary On
Versions: 1 2 3 4 5 6 7 8 9 10 11 12 13 14 15 16 17 18 19 20 21 22 23 24 25 26 27 28 29 30 31 32 33 34 35 36 37 38 39 40 41 42 43
000
FTUS42 KRAH 181758 AAA
TAFGSO
TAF AMD
KGSO 181758Z 1818/1918 24008KT P6SM SCT040 BKN120
     FM182100 23010KT P6SM BKN040
      TEMPO 1822/1901 26015G25KT 2SM TSRA BKN025CB
     FM190300 33005KT P6SM BKN060 BKN250=

USA.gov is the U.S. government's official web portal to all federal, state and local government web resources and services.